Time;durP1;ratioP1;P1;durP2;ratioP2;P2;SDS_P1;SDS_P2;PMS_P1;PMS_P2;Temp;Humidity;BMP_temperature;BMP_pressure;BME280_temperature;BME280_humidity;BME280_pressure;Samples;Min_cycle;Max_cycle;Signal;HPM_P1;HPM_P2
2022/10/27 00:01:23;;;;;;;5.30;4.80;;;15.70;99.90;;;;;;5037783;28;20487;-83
2022/10/27 00:03:51;;;;;;;6.57;4.93;;;15.70;99.90;;;;;;5045370;28;20464;-84
2022/10/27 00:06:18;;;;;;;5.73;4.50;;;15.70;99.90;;;;;;5047471;28;20476;-83
2022/10/27 00:08:49;;;;;;;6.80;6.17;;;15.70;99.90;;;;;;5045154;28;20488;-81
2022/10/27 00:11:16;;;;;;;9.13;5.83;;;15.60;99.90;;;;;;5023707;28;20523;-81
2022/10/27 00:13:43;;;;;;;5.77;5.17;;;15.60;99.90;;;;;;5035034;28;20487;-80
2022/10/27 00:16:14;;;;;;;5.77;5.00;;;15.60;99.90;;;;;;5035311;28;20479;-81
2022/10/27 00:18:41;;;;;;;6.53;5.93;;;15.60;99.90;;;;;;5038563;28;20480;-80
2022/10/27 00:21:10;;;;;;;6.03;5.43;;;15.60;99.90;;;;;;5036761;28;20482;-80
2022/10/27 00:23:38;;;;;;;6.23;5.60;;;15.60;99.90;;;;;;5033660;28;20546;-84
2022/10/27 00:26:07;;;;;;;5.33;4.83;;;15.60;99.90;;;;;;5032968;28;20468;-83
2022/10/27 00:28:35;;;;;;;5.77;5.23;;;15.60;99.90;;;;;;5031915;28;20491;-83
2022/10/27 00:31:04;;;;;;;6.13;5.53;;;15.50;99.90;;;;;;5032063;28;20464;-79
2022/10/27 00:33:32;;;;;;;5.87;5.30;;;15.50;99.90;;;;;;5022485;28;20464;-80
2022/10/27 00:36:04;;;;;;;6.73;6.13;;;15.50;99.90;;;;;;5031989;28;20756;-79
2022/10/27 00:38:31;;;;;;;6.10;5.03;;;15.50;99.90;;;;;;5032690;28;20464;-83
2022/10/27 00:41:02;;;;;;;7.40;6.10;;;15.50;99.90;;;;;;5042144;28;20491;-84
2022/10/27 00:43:39;;;;;;;7.60;5.53;;;15.50;99.90;;;;;;5034977;28;20465;-85
2022/10/27 00:46:18;;;;;;;5.70;5.23;;;15.50;99.90;;;;;;5031093;28;20993;-84
2022/10/27 00:48:46;;;;;;;7.00;5.40;;;15.50;99.90;;;;;;5033080;28;20495;-84
2022/10/27 00:51:16;;;;;;;5.07;4.57;;;15.40;99.90;;;;;;5030833;28;20492;-81
2022/10/27 00:53:47;;;;;;;5.30;4.80;;;15.50;99.90;;;;;;5032063;28;20468;-85
2022/10/27 00:56:18;;;;;;;4.50;4.20;;;15.40;99.90;;;;;;5031829;28;20468;-83
2022/10/27 00:58:47;;;;;;;5.07;4.57;;;15.40;99.90;;;;;;5032443;28;20526;-84
2022/10/27 01:01:15;;;;;;;4.43;4.03;;;15.40;99.90;;;;;;5032027;28;20465;-84
2022/10/27 01:03:43;;;;;;;5.17;4.77;;;15.40;99.90;;;;;;5034288;28;20471;-84
2022/10/27 01:06:13;;;;;;;5.57;5.03;;;15.40;99.90;;;;;;5034273;28;20476;-81
2022/10/27 01:08:40;;;;;;;6.20;5.47;;;15.40;99.90;;;;;;5036238;28;20496;-80
2022/10/27 01:11:07;;;;;;;4.77;4.03;;;15.40;99.90;;;;;;5035326;28;20523;-81
2022/10/27 01:13:34;;;;;;;4.80;4.40;;;15.40;99.90;;;;;;5035946;28;20476;-83
2022/10/27 01:16:15;;;;;;;5.70;5.10;;;15.40;99.90;;;;;;5035590;28;20503;-83
2022/10/27 01:18:52;;;;;;;4.43;4.07;;;15.40;99.90;;;;;;5036272;28;20490;-80
2022/10/27 01:21:53;;;;;;;4.83;4.50;;;15.40;99.90;;;;;;5035937;28;20451;-81
2022/10/27 01:24:50;;;;;;;4.17;3.77;;;15.40;99.90;;;;;;5024320;28;20457;-80
2022/10/27 01:27:41;;;;;;;5.40;4.90;;;15.30;99.90;;;;;;5021106;28;20566;-80
2022/10/27 01:30:11;;;;;;;5.07;4.57;;;15.40;99.90;;;;;;5021334;28;20480;-83
2022/10/27 01:32:49;;;;;;;5.40;5.00;;;15.30;99.90;;;;;;5016348;28;20555;-84
2022/10/27 01:35:25;;;;;;;6.50;5.90;;;15.30;99.90;;;;;;5024056;28;20479;-83
2022/10/27 01:38:00;;;;;;;6.03;5.43;;;15.30;99.90;;;;;;5035366;28;20491;-84
2022/10/27 01:40:34;;;;;;;7.23;6.43;;;15.30;99.90;;;;;;5033482;28;20639;-80
2022/10/27 01:43:06;;;;;;;7.40;6.17;;;15.30;99.90;;;;;;5034468;28;20507;-81
2022/10/27 01:45:37;;;;;;;11.60;9.97;;;15.30;99.90;;;;;;5028986;28;20459;-83
2022/10/27 01:48:08;;;;;;;9.20;6.47;;;15.30;99.90;;;;;;5036131;28;20499;-79
2022/10/27 01:50:37;;;;;;;7.80;5.70;;;15.30;99.90;;;;;;5035480;28;21008;-80
2022/10/27 01:53:04;;;;;;;7.93;5.20;;;15.20;99.90;;;;;;5035490;28;20459;-84
2022/10/27 01:55:45;;;;;;;4.70;4.30;;;15.20;99.90;;;;;;5033357;28;20961;-81
2022/10/27 01:58:43;;;;;;;7.20;5.43;;;15.20;99.90;;;;;;5036050;28;20870;-84
2022/10/27 02:01:28;;;;;;;5.53;5.03;;;15.20;99.90;;;;;;5049465;28;20566;-81
2022/10/27 02:04:01;;;;;;;5.57;5.03;;;15.20;99.90;;;;;;5014802;28;20634;-80
2022/10/27 02:06:33;;;;;;;5.00;4.57;;;15.20;99.90;;;;;;5031240;28;20555;-79
2022/10/27 02:09:08;;;;;;;4.67;4.37;;;15.20;99.90;;;;;;5035808;28;20483;-83
2022/10/27 02:11:37;;;;;;;4.83;4.50;;;15.20;99.90;;;;;;5035634;28;20495;-84
2022/10/27 02:14:06;;;;;;;5.50;5.10;;;15.20;99.90;;;;;;5034282;28;20491;-84
2022/10/27 02:16:40;;;;;;;6.40;5.07;;;15.10;99.90;;;;;;5034998;28;20472;-81
2022/10/27 02:19:15;;;;;;;7.50;5.10;;;15.10;99.90;;;;;;5035628;28;20864;-84
2022/10/27 02:21:44;;;;;;;6.77;6.27;;;15.10;99.90;;;;;;5035381;28;20482;-84
2022/10/27 02:24:12;;;;;;;6.93;6.30;;;15.10;99.90;;;;;;5034948;28;20474;-84
2022/10/27 02:26:45;;;;;;;7.57;5.83;;;15.10;99.90;;;;;;5034924;28;21225;-84
2022/10/27 02:29:17;;;;;;;7.20;5.60;;;15.10;99.90;;;;;;5013048;28;20469;-81
2022/10/27 02:31:48;;;;;;;5.47;4.97;;;15.10;99.90;;;;;;5013370;28;20461;-80
2022/10/27 02:34:17;;;;;;;6.67;5.97;;;15.10;99.90;;;;;;5019738;28;20937;-81
2022/10/27 02:36:45;;;;;;;5.50;4.87;;;15.10;99.90;;;;;;5033652;28;20487;-80
2022/10/27 02:39:12;;;;;;;6.60;5.60;;;15.00;99.90;;;;;;5034161;28;21024;-81
2022/10/27 02:41:39;;;;;;;5.13;4.63;;;15.00;99.90;;;;;;5034592;28;20551;-80
2022/10/27 02:44:06;;;;;;;7.87;5.70;;;15.00;99.90;;;;;;5034912;28;20471;-80
2022/10/27 02:47:02;;;;;;;5.07;4.67;;;15.00;99.90;;;;;;5035045;28;20594;-80
2022/10/27 02:49:30;;;;;;;6.20;5.40;;;15.00;99.90;;;;;;5027785;28;20482;-84
2022/10/27 02:51:57;;;;;;;4.30;4.00;;;15.00;99.90;;;;;;5035157;28;20476;-81
2022/10/27 02:54:24;;;;;;;5.23;4.73;;;15.10;99.90;;;;;;5034085;28;20528;-84
2022/10/27 02:56:51;;;;;;;4.97;4.57;;;15.10;99.90;;;;;;5035647;28;20534;-84
2022/10/27 02:59:18;;;;;;;6.50;5.90;;;15.10;99.90;;;;;;5034848;28;20547;-84
2022/10/27 03:01:51;;;;;;;6.13;5.30;;;15.10;99.90;;;;;;5036114;28;20500;-83
2022/10/27 03:04:21;;;;;;;5.43;4.93;;;15.10;99.90;;;;;;5025427;28;20559;-83
2022/10/27 03:06:49;;;;;;;5.67;5.17;;;15.10;99.90;;;;;;5050452;28;20460;-84
2022/10/27 03:09:16;;;;;;;5.60;5.07;;;15.10;99.90;;;;;;5034425;28;20790;-80
2022/10/27 03:11:44;;;;;;;7.63;5.70;;;15.20;99.90;;;;;;5034032;28;20850;-80
2022/10/27 03:14:11;;;;;;;7.70;5.70;;;15.20;99.90;;;;;;5034437;28;20464;-84
2022/10/27 03:16:38;;;;;;;6.80;6.20;;;15.10;99.90;;;;;;5036184;28;20460;-83
2022/10/27 03:19:05;;;;;;;5.67;5.13;;;15.10;99.90;;;;;;5036506;28;20488;-80
2022/10/27 03:21:32;;;;;;;6.17;5.57;;;15.20;99.90;;;;;;5035974;28;20468;-84
2022/10/27 03:24:04;;;;;;;5.67;5.27;;;15.20;99.90;;;;;;5035069;28;20464;-81
2022/10/27 03:26:31;;;;;;;6.30;5.70;;;15.20;99.90;;;;;;5032744;28;20476;-81
2022/10/27 03:28:58;;;;;;;5.97;5.47;;;15.20;99.90;;;;;;5023065;28;20475;-80
2022/10/27 03:31:25;;;;;;;6.57;5.37;;;15.20;99.90;;;;;;5036602;28;20549;-80
2022/10/27 03:33:58;;;;;;;5.90;5.40;;;15.20;99.90;;;;;;5036217;28;20464;-84
2022/10/27 03:36:25;;;;;;;5.27;4.73;;;15.20;99.90;;;;;;5040068;28;20470;-84
2022/10/27 03:38:53;;;;;;;5.60;5.07;;;15.20;99.90;;;;;;5040808;28;20775;-80
2022/10/27 03:41:21;;;;;;;6.07;5.03;;;15.10;99.90;;;;;;5033819;28;20794;-80
2022/10/27 03:43:48;;;;;;;7.37;6.67;;;15.10;99.90;;;;;;5034729;28;20476;-80
2022/10/27 03:46:15;;;;;;;6.50;5.90;;;15.10;99.90;;;;;;5037791;28;20544;-83
2022/10/27 03:49:00;;;;;;;5.97;5.40;;;15.10;99.90;;;;;;5038891;28;20464;-80
2022/10/27 03:51:28;;;;;;;5.30;4.90;;;15.10;99.90;;;;;;5042928;28;20456;-81
2022/10/27 03:53:57;;;;;;;6.30;5.70;;;15.10;99.90;;;;;;5042103;28;20486;-80
2022/10/27 03:56:25;;;;;;;5.93;5.20;;;15.10;99.90;;;;;;5041011;28;20459;-84
2022/10/27 03:58:52;;;;;;;6.63;5.33;;;15.10;99.90;;;;;;5050885;28;20468;-84
2022/10/27 04:01:19;;;;;;;7.10;6.40;;;15.10;99.90;;;;;;5040780;28;20464;-83
2022/10/27 04:03:48;;;;;;;6.47;5.87;;;15.10;99.90;;;;;;5037407;28;20978;-80
2022/10/27 04:06:21;;;;;;;6.47;5.80;;;15.00;99.90;;;;;;5027068;28;20464;-81
2022/10/27 04:08:48;;;;;;;7.73;7.03;;;15.00;99.90;;;;;;5049799;28;20533;-83
2022/10/27 04:11:16;;;;;;;7.70;7.10;;;15.10;99.90;;;;;;5042150;28;20530;-80
2022/10/27 04:13:47;;;;;;;7.43;6.73;;;15.00;99.90;;;;;;5043551;28;20590;-80
2022/10/27 04:16:14;;;;;;;6.57;5.60;;;15.00;99.90;;;;;;5050052;28;20577;-84
2022/10/27 04:18:41;;;;;;;5.50;5.10;;;15.00;99.90;;;;;;5050055;28;20487;-84
2022/10/27 04:21:10;;;;;;;6.57;5.97;;;15.00;99.90;;;;;;5045258;28;20491;-85
2022/10/27 04:23:37;;;;;;;7.10;6.33;;;15.00;99.90;;;;;;5038279;28;20464;-80
2022/10/27 04:26:05;;;;;;;6.23;5.63;;;15.00;99.90;;;;;;5032813;28;20476;-81
2022/10/27 04:28:32;;;;;;;6.73;5.93;;;15.00;99.90;;;;;;5032926;28;20476;-81
2022/10/27 04:31:01;;;;;;;6.80;6.20;;;15.00;99.90;;;;;;5035586;28;21008;-84
2022/10/27 04:33:31;;;;;;;7.73;7.03;;;15.00;99.90;;;;;;5032951;28;20480;-81
2022/10/27 04:35:58;;;;;;;9.40;6.93;;;14.90;99.90;;;;;;5034311;28;20499;-85
2022/10/27 04:38:27;;;;;;;7.37;6.10;;;14.90;99.90;;;;;;5034963;28;20476;-84
2022/10/27 04:40:54;;;;;;;6.93;6.33;;;14.90;99.90;;;;;;5035935;28;20559;-85
2022/10/27 04:43:21;;;;;;;7.10;6.40;;;14.90;99.90;;;;;;5034670;28;20611;-81
2022/10/27 04:45:49;;;;;;;8.17;6.07;;;14.90;99.90;;;;;;5033053;28;20468;-80
2022/10/27 04:48:17;;;;;;;7.93;6.83;;;14.90;99.90;;;;;;5034242;28;20537;-85
2022/10/27 04:50:44;;;;;;;6.50;5.90;;;14.90;99.90;;;;;;5035358;28;20460;-80
2022/10/27 04:53:11;;;;;;;7.97;6.80;;;14.90;99.90;;;;;;5033212;28;20868;-83
2022/10/27 04:55:41;;;;;;;7.60;6.77;;;14.90;99.90;;;;;;5042377;28;20879;-84
2022/10/27 04:58:08;;;;;;;8.27;7.27;;;15.00;99.90;;;;;;5033566;28;20468;-81
2022/10/27 05:00:36;;;;;;;7.07;6.00;;;14.90;99.90;;;;;;5033050;28;20813;-80
2022/10/27 05:03:09;;;;;;;7.13;6.43;;;15.00;99.90;;;;;;5023358;28;20478;-80
2022/10/27 05:05:38;;;;;;;7.60;6.90;;;14.90;99.90;;;;;;5048117;28;20560;-84
2022/10/27 05:08:05;;;;;;;7.13;6.53;;;14.90;99.90;;;;;;5034204;28;20503;-85
2022/10/27 05:10:34;;;;;;;7.10;6.30;;;14.90;99.90;;;;;;5025955;28;20467;-81
2022/10/27 05:13:01;;;;;;;7.27;6.27;;;14.90;99.90;;;;;;5045771;28;20567;-82
2022/10/27 05:15:38;;;;;;;7.60;6.80;;;14.90;99.90;;;;;;5032106;28;20476;-81
2022/10/27 05:18:05;;;;;;;8.20;7.40;;;14.90;99.90;;;;;;5033197;28;20474;-81
2022/10/27 05:20:34;;;;;;;13.70;7.03;;;14.90;99.90;;;;;;5031535;28;20472;-80
2022/10/27 05:23:02;;;;;;;7.10;6.43;;;15.00;99.90;;;;;;5036970;28;20554;-80
2022/10/27 05:25:29;;;;;;;7.67;5.70;;;15.00;99.90;;;;;;5033137;28;20464;-80
2022/10/27 05:28:03;;;;;;;7.07;6.37;;;15.00;99.90;;;;;;5032481;28;20522;-79
2022/10/27 05:30:30;;;;;;;7.60;6.90;;;14.90;99.90;;;;;;5031919;28;20467;-80
2022/10/27 05:32:57;;;;;;;6.27;5.67;;;14.90;99.90;;;;;;5031766;28;20472;-83
2022/10/27 05:35:24;;;;;;;6.97;6.27;;;15.00;99.90;;;;;;5032548;28;20472;-83
2022/10/27 05:37:51;;;;;;;8.40;7.50;;;15.00;99.90;;;;;;5032608;28;20460;-83
2022/10/27 05:40:19;;;;;;;8.40;6.70;;;15.00;99.90;;;;;;5032534;28;20496;-82
2022/10/27 05:42:50;;;;;;;8.20;7.07;;;15.00;99.90;;;;;;5032795;28;20499;-79
2022/10/27 05:45:17;;;;;;;7.77;6.97;;;15.00;99.90;;;;;;5031849;28;20468;-79
2022/10/27 05:47:44;;;;;;;7.93;7.13;;;15.00;99.90;;;;;;5032558;28;20935;-83
2022/10/27 05:50:11;;;;;;;9.20;6.40;;;15.00;99.90;;;;;;5034636;28;20468;-84
2022/10/27 05:52:38;;;;;;;8.00;6.60;;;15.00;99.90;;;;;;5035545;28;20962;-81
2022/10/27 05:55:06;;;;;;;7.33;6.63;;;15.00;99.90;;;;;;5036524;28;20488;-84
2022/10/27 05:57:34;;;;;;;6.33;5.73;;;15.00;99.90;;;;;;5036933;28;20503;-83
2022/10/27 06:00:02;;;;;;;7.93;7.13;;;15.00;99.90;;;;;;5036823;28;20487;-83
2022/10/27 06:02:29;;;;;;;9.87;8.60;;;14.90;99.90;;;;;;5037863;28;20476;-83
2022/10/27 06:04:56;;;;;;;9.03;7.57;;;15.00;99.90;;;;;;5039730;28;20467;-85
2022/10/27 06:07:23;;;;;;;6.83;6.13;;;15.00;99.90;;;;;;5036314;28;20475;-80
2022/10/27 06:09:53;;;;;;;6.90;6.30;;;15.00;99.90;;;;;;5036696;28;20546;-80
2022/10/27 06:12:20;;;;;;;9.60;8.00;;;15.00;99.90;;;;;;5039924;28;20483;-80
2022/10/27 06:14:52;;;;;;;11.80;7.20;;;15.00;99.90;;;;;;5035176;28;21007;-80
2022/10/27 06:17:19;;;;;;;9.07;7.10;;;15.00;99.90;;;;;;5036021;28;20543;-80
2022/10/27 06:19:46;;;;;;;9.83;7.10;;;15.00;99.90;;;;;;5035318;28;20475;-80
2022/10/27 06:22:13;;;;;;;9.13;6.90;;;14.90;99.90;;;;;;5035586;28;20472;-79
2022/10/27 06:24:40;;;;;;;8.97;7.63;;;14.90;99.90;;;;;;5034287;28;20476;-80
2022/10/27 06:27:07;;;;;;;12.37;7.73;;;15.00;99.90;;;;;;5036491;28;20864;-79
2022/10/27 06:29:34;;;;;;;6.53;5.93;;;15.00;99.90;;;;;;5034424;28;20473;-80
2022/10/27 06:32:05;;;;;;;10.30;6.37;;;15.00;99.90;;;;;;5035152;28;20491;-79
2022/10/27 06:34:35;;;;;;;11.77;8.13;;;15.00;99.90;;;;;;5035405;28;20484;-80
2022/10/27 06:37:02;;;;;;;9.83;7.50;;;15.00;99.90;;;;;;5034646;28;20457;-80
2022/10/27 06:39:29;;;;;;;7.27;6.67;;;15.00;99.90;;;;;;5034425;28;20475;-80
2022/10/27 06:41:56;;;;;;;8.70;7.90;;;15.00;99.90;;;;;;5034025;28;20821;-79
2022/10/27 06:44:23;;;;;;;8.00;7.27;;;15.00;99.90;;;;;;5035999;28;20472;-79
2022/10/27 06:46:51;;;;;;;10.53;7.87;;;15.00;99.90;;;;;;5034780;28;20495;-79
2022/10/27 06:49:19;;;;;;;9.83;7.37;;;15.00;99.90;;;;;;5034665;28;20471;-79
2022/10/27 06:51:46;;;;;;;7.13;6.53;;;15.00;99.90;;;;;;5034226;28;20484;-80
2022/10/27 06:54:13;;;;;;;8.20;6.80;;;15.10;99.90;;;;;;5034814;28;20536;-79
2022/10/27 06:56:40;;;;;;;8.50;6.47;;;15.00;99.90;;;;;;5034161;28;20476;-80
2022/10/27 06:59:08;;;;;;;7.03;6.43;;;15.10;99.90;;;;;;5034597;28;20575;-80
2022/10/27 07:01:35;;;;;;;8.83;6.20;;;15.10;99.90;;;;;;5033415;28;20494;-80
2022/10/27 07:04:02;;;;;;;6.33;5.70;;;15.10;99.90;;;;;;5033482;28;20476;-79
2022/10/27 07:06:37;;;;;;;6.07;5.50;;;15.10;99.90;;;;;;5034274;28;20499;-80
2022/10/27 07:09:04;;;;;;;6.87;6.17;;;15.10;99.90;;;;;;5034038;28;20467;-79
2022/10/27 07:11:31;;;;;;;7.00;6.30;;;15.10;99.90;;;;;;5033931;28;20557;-79
2022/10/27 07:13:58;;;;;;;9.53;7.03;;;15.10;99.90;;;;;;5033580;28;20496;-80
2022/10/27 07:16:25;;;;;;;6.50;5.90;;;15.10;99.90;;;;;;5034058;28;20562;-80
2022/10/27 07:18:52;;;;;;;6.60;6.00;;;15.20;99.90;;;;;;5034477;28;20468;-80
2022/10/27 07:21:19;;;;;;;6.47;5.97;;;15.20;99.90;;;;;;5035711;28;20507;-84
2022/10/27 07:23:47;;;;;;;9.43;6.77;;;15.20;99.90;;;;;;5035029;28;20540;-84
2022/10/27 07:26:15;;;;;;;6.70;6.20;;;15.20;99.90;;;;;;5034626;28;20526;-84
2022/10/27 07:28:42;;;;;;;7.60;6.87;;;15.20;99.90;;;;;;5034960;28;20468;-84
2022/10/27 07:31:11;;;;;;;6.57;5.97;;;15.30;99.90;;;;;;5034706;28;20833;-80
2022/10/27 07:33:38;;;;;;;5.87;5.20;;;15.30;99.90;;;;;;5034217;28;20834;-80
2022/10/27 07:36:05;;;;;;;5.73;5.23;;;15.30;99.90;;;;;;5034562;28;20815;-83
2022/10/27 07:38:33;;;;;;;12.10;8.60;;;15.40;99.90;;;;;;5044990;28;20464;-82
2022/10/27 07:41:01;;;;;;;9.90;8.93;;;15.40;99.90;;;;;;5039721;28;20857;-84
2022/10/27 07:43:28;;;;;;;7.93;7.10;;;15.50;99.90;;;;;;5035728;28;20469;-83
2022/10/27 07:45:55;;;;;;;12.27;9.67;;;15.50;99.90;;;;;;5034084;28;20526;-83
2022/10/27 07:48:28;;;;;;;16.30;11.40;;;15.50;99.90;;;;;;5041728;28;20466;-82
2022/10/27 07:50:58;;;;;;;10.43;9.40;;;15.50;99.90;;;;;;5034366;28;20775;-83
2022/10/27 07:53:28;;;;;;;9.37;8.23;;;15.60;99.90;;;;;;5035065;28;20486;-81
2022/10/27 07:56:01;;;;;;;9.93;8.07;;;15.60;99.90;;;;;;5033011;28;20468;-81
2022/10/27 07:58:30;;;;;;;7.20;6.50;;;15.70;99.90;;;;;;5033633;28;20487;-84
2022/10/27 08:01:14;;;;;;;7.33;6.50;;;15.80;99.90;;;;;;5033344;28;20456;-81
2022/10/27 08:03:41;;;;;;;6.57;5.90;;;15.80;99.90;;;;;;5032121;28;20997;-84
2022/10/27 08:06:08;;;;;;;7.57;6.87;;;15.90;99.90;;;;;;5033093;28;20789;-81
2022/10/27 08:08:37;;;;;;;6.83;6.23;;;15.90;99.90;;;;;;5032865;28;20472;-81
2022/10/27 08:11:04;;;;;;;7.40;6.57;;;16.00;99.90;;;;;;5034047;28;20456;-85
2022/10/27 08:13:33;;;;;;;8.73;7.93;;;16.10;99.90;;;;;;5033113;28;21005;-81
2022/10/27 08:16:00;;;;;;;7.03;6.33;;;16.10;99.90;;;;;;5032622;28;20464;-81
2022/10/27 08:18:27;;;;;;;9.13;8.00;;;16.10;99.90;;;;;;5033334;28;20499;-81
2022/10/27 08:20:54;;;;;;;8.07;7.37;;;16.20;99.90;;;;;;5032667;28;20980;-84
2022/10/27 08:23:24;;;;;;;8.50;7.60;;;16.20;99.90;;;;;;5033565;28;20477;-84
2022/10/27 08:25:51;;;;;;;8.23;7.43;;;16.20;99.90;;;;;;5032965;28;20465;-85
2022/10/27 08:28:18;;;;;;;7.67;6.97;;;16.30;99.90;;;;;;5033457;28;20470;-81
2022/10/27 08:30:47;;;;;;;7.07;6.50;;;16.30;99.90;;;;;;5018553;28;20477;-84
2022/10/27 08:33:15;;;;;;;7.73;7.03;;;16.40;99.90;;;;;;5033231;28;20992;-85
2022/10/27 08:35:42;;;;;;;6.83;6.20;;;16.40;99.90;;;;;;5032975;28;20464;-80
2022/10/27 08:38:13;;;;;;;8.83;6.80;;;16.40;99.90;;;;;;5032720;28;20509;-80
2022/10/27 08:40:51;;;;;;;6.90;5.93;;;16.50;99.90;;;;;;5026622;28;20566;-82
2022/10/27 08:43:46;;;;;;;6.93;6.33;;;16.50;99.90;;;;;;5048491;28;20502;-83
2022/10/27 08:46:24;;;;;;;7.70;7.00;;;16.50;99.90;;;;;;5037262;28;20529;-83
2022/10/27 08:48:56;;;;;;;7.23;6.53;;;16.50;99.90;;;;;;5044935;28;20473;-82
2022/10/27 08:51:28;;;;;;;8.17;7.23;;;16.60;99.90;;;;;;5049060;28;20469;-80
2022/10/27 08:53:56;;;;;;;8.60;7.73;;;16.60;99.90;;;;;;5052071;28;20465;-80
2022/10/27 08:56:31;;;;;;;9.37;8.50;;;16.60;99.90;;;;;;5051168;28;20711;-84
2022/10/27 08:59:03;;;;;;;9.10;8.30;;;16.70;99.90;;;;;;5053250;28;20485;-84
2022/10/27 09:01:47;;;;;;;9.30;8.40;;;16.70;99.90;;;;;;5040334;28;20464;-80
2022/10/27 09:04:28;;;;;;;7.67;6.93;;;16.80;99.90;;;;;;5052862;28;20475;-81
2022/10/27 09:07:05;;;;;;;8.07;7.33;;;16.80;99.90;;;;;;5040432;28;20506;-81
2022/10/27 09:09:42;;;;;;;8.33;7.40;;;16.90;99.90;;;;;;5058655;28;20453;-83
2022/10/27 09:12:21;;;;;;;7.40;6.70;;;17.00;99.90;;;;;;5053650;28;20530;-83
2022/10/27 09:15:14;;;;;;;8.10;7.30;;;17.00;99.90;;;;;;5053659;28;20531;-79
2022/10/27 09:17:47;;;;;;;8.60;7.70;;;17.10;99.90;;;;;;5033553;28;20491;-80
2022/10/27 09:20:19;;;;;;;12.00;7.60;;;17.10;99.90;;;;;;5033143;28;20959;-84
2022/10/27 09:22:50;;;;;;;6.40;5.90;;;17.20;99.90;;;;;;5032485;28;20506;-83
2022/10/27 09:25:20;;;;;;;6.20;5.60;;;17.20;99.90;;;;;;5031643;28;20474;-83
2022/10/27 09:27:51;;;;;;;6.30;5.80;;;17.20;99.90;;;;;;5044226;28;20464;-84
2022/10/27 09:30:22;;;;;;;7.53;4.97;;;17.30;99.90;;;;;;5036204;28;20834;-79
2022/10/27 09:32:53;;;;;;;5.50;5.00;;;17.40;99.90;;;;;;5040882;28;20594;-80
2022/10/27 09:35:24;;;;;;;7.67;6.70;;;17.40;99.90;;;;;;5035477;28;21038;-80
2022/10/27 09:37:52;;;;;;;6.53;5.77;;;17.50;99.90;;;;;;5035167;28;20503;-80
2022/10/27 09:40:21;;;;;;;6.07;5.23;;;17.50;99.90;;;;;;5036359;28;20495;-80
2022/10/27 09:42:52;;;;;;;6.10;5.60;;;17.60;99.90;;;;;;5052974;28;20471;-81
2022/10/27 09:45:20;;;;;;;7.73;5.40;;;17.60;99.90;;;;;;5035569;28;20471;-81
2022/10/27 09:47:52;;;;;;;5.33;4.83;;;17.60;99.90;;;;;;5043368;28;20466;-81
2022/10/27 09:50:23;;;;;;;5.63;5.07;;;17.60;99.90;;;;;;5056899;28;20478;-80
2022/10/27 09:52:54;;;;;;;6.77;5.53;;;17.70;99.90;;;;;;5055666;28;20820;-81
2022/10/27 09:55:21;;;;;;;6.60;5.60;;;17.70;99.90;;;;;;5056221;28;20566;-80
2022/10/27 09:57:52;;;;;;;6.17;5.57;;;17.80;99.90;;;;;;5034999;28;20565;-85
2022/10/27 10:00:28;;;;;;;7.80;6.83;;;17.80;99.90;;;;;;5037092;28;20987;-81
2022/10/27 10:03:46;;;;;;;6.33;5.57;;;17.80;99.90;;;;;;5036697;28;20629;-84
2022/10/27 10:06:28;;;;;;;7.37;6.40;;;17.80;99.90;;;;;;5031511;28;20512;-81
2022/10/27 10:08:55;;;;;;;7.40;5.17;;;17.90;99.90;;;;;;5027202;28;20464;-80
2022/10/27 10:11:25;;;;;;;7.40;5.97;;;17.90;99.90;;;;;;5050354;28;20533;-80
2022/10/27 10:14:04;;;;;;;8.53;5.90;;;18.00;99.90;;;;;;5047300;28;20459;-80
2022/10/27 10:16:34;;;;;;;6.33;5.73;;;18.10;99.90;;;;;;5055509;28;20466;-80
2022/10/27 10:19:07;;;;;;;7.00;5.40;;;18.10;99.90;;;;;;5054191;28;20527;-81
2022/10/27 10:21:48;;;;;;;5.20;4.80;;;18.20;99.90;;;;;;5050990;28;20540;-80
2022/10/27 10:24:20;;;;;;;9.17;4.87;;;18.20;99.90;;;;;;5061534;28;20530;-80
2022/10/27 10:26:49;;;;;;;7.77;5.63;;;18.20;99.90;;;;;;5054992;28;20577;-81
2022/10/27 10:29:27;;;;;;;7.03;5.77;;;18.30;99.90;;;;;;5054278;28;20467;-80
2022/10/27 10:32:12;;;;;;;6.70;5.43;;;18.40;99.90;;;;;;5054906;28;20514;-81
2022/10/27 10:34:42;;;;;;;4.50;4.10;;;18.40;99.90;;;;;;5055174;28;20816;-80
2022/10/27 10:37:33;;;;;;;5.77;5.13;;;18.40;99.90;;;;;;5047324;28;20482;-81
2022/10/27 10:43:28;;;;;;;8.40;5.33;;;18.50;99.90;;;;;;5033687;28;20723;-80
2022/10/27 10:45:56;;;;;;;12.20;9.73;;;18.60;99.90;;;;;;5029424;28;20876;-80
2022/10/27 10:48:38;;;;;;;10.10;9.00;;;18.60;99.90;;;;;;5060208;28;20790;-80
2022/10/27 10:51:07;;;;;;;11.23;8.27;;;18.70;99.90;;;;;;5054672;28;20482;-80
2022/10/27 10:53:39;;;;;;;8.83;8.03;;;18.80;99.90;;;;;;5054267;28;20549;-81
2022/10/27 10:56:20;;;;;;;7.40;6.80;;;18.80;99.90;;;;;;5054792;28;20478;-81
2022/10/27 10:58:56;;;;;;;6.43;5.80;;;18.90;99.90;;;;;;5053160;28;20455;-80
2022/10/27 11:01:23;;;;;;;7.13;5.10;;;18.80;99.90;;;;;;5055018;28;20867;-80
2022/10/27 11:03:55;;;;;;;6.57;5.50;;;18.90;99.90;;;;;;5053154;28;20459;-81
2022/10/27 11:06:25;;;;;;;6.23;5.30;;;18.90;99.90;;;;;;5054430;28;20473;-81
2022/10/27 11:08:59;;;;;;;5.80;5.10;;;18.90;99.90;;;;;;5053837;28;20455;-80
2022/10/27 11:11:35;;;;;;;5.57;5.10;;;18.90;99.90;;;;;;5054397;28;20566;-80
2022/10/27 11:14:07;;;;;;;6.67;4.57;;;18.90;99.90;;;;;;5041561;28;20472;-80
2022/10/27 11:16:35;;;;;;;5.30;4.43;;;18.90;99.90;;;;;;5013830;28;20576;-81
2022/10/27 11:19:08;;;;;;;4.97;4.47;;;18.90;99.90;;;;;;5011474;28;20492;-83
2022/10/27 11:21:40;;;;;;;7.50;4.77;;;18.90;99.90;;;;;;5010580;28;20551;-84
2022/10/27 11:24:29;;;;;;;5.00;4.60;;;19.00;99.90;;;;;;5020905;28;20473;-82
2022/10/27 11:27:06;;;;;;;4.60;4.23;;;19.00;99.90;;;;;;5017715;28;20465;-84
2022/10/27 11:30:05;;;;;;;6.00;4.80;;;19.00;99.90;;;;;;5019541;28;20461;-80
2022/10/27 11:32:45;;;;;;;4.67;3.73;;;19.00;99.90;;;;;;5017080;28;21005;-81
2022/10/27 11:35:19;;;;;;;5.00;4.50;;;19.00;99.90;;;;;;5006669;28;20976;-85
2022/10/27 11:38:06;;;;;;;4.57;4.17;;;19.00;99.90;;;;;;5028693;28;20485;-83
2022/10/27 11:40:47;;;;;;;6.80;5.90;;;19.00;99.90;;;;;;5013883;28;20475;-83
2022/10/27 11:43:34;;;;;;;10.73;6.07;;;19.00;99.90;;;;;;4994323;28;20576;-83
2022/10/27 11:46:10;;;;;;;6.70;5.90;;;19.00;99.90;;;;;;5015275;28;20619;-82
2022/10/27 11:48:54;;;;;;;6.43;5.73;;;19.00;99.90;;;;;;5049581;28;20896;-83
2022/10/27 11:51:28;;;;;;;4.63;4.23;;;19.10;99.90;;;;;;5055103;28;20472;-84
2022/10/27 11:53:56;;;;;;;4.73;4.33;;;19.00;99.90;;;;;;5043215;28;21149;-85
2022/10/27 11:56:46;;;;;;;5.50;4.40;;;19.10;99.90;;;;;;5042093;28;20488;-83
2022/10/27 11:59:21;;;;;;;4.20;3.80;;;19.10;99.90;;;;;;5053304;28;20500;-84
2022/10/27 12:02:05;;;;;;;7.13;3.80;;;19.10;99.90;;;;;;5042739;28;20894;-83
2022/10/27 12:04:47;;;;;;;5.13;4.60;;;19.10;99.90;;;;;;5062057;28;20788;-83
2022/10/27 12:07:28;;;;;;;12.07;7.63;;;19.20;99.90;;;;;;5056739;28;20542;-83
2022/10/27 12:10:25;;;;;;;8.73;6.90;;;19.20;99.90;;;;;;5058609;28;20552;-84
2022/10/27 12:12:59;;;;;;;6.10;5.50;;;19.20;99.90;;;;;;5055035;28;20805;-81
2022/10/27 12:15:32;;;;;;;6.53;6.03;;;19.20;99.90;;;;;;5052967;28;20474;-81
2022/10/27 12:18:09;;;;;;;5.00;4.60;;;19.30;99.90;;;;;;5052010;28;20471;-80
2022/10/27 12:20:45;;;;;;;5.97;4.23;;;19.30;99.90;;;;;;5047605;28;20462;-80
2022/10/27 12:23:17;;;;;;;12.27;6.97;;;19.30;99.90;;;;;;5064813;28;20493;-80
2022/10/27 12:25:53;;;;;;;5.83;5.30;;;19.30;99.90;;;;;;5057317;28;20462;-83
2022/10/27 12:28:25;;;;;;;7.67;6.07;;;19.30;99.90;;;;;;5055180;28;20555;-84
2022/10/27 12:30:53;;;;;;;7.10;3.97;;;19.30;99.90;;;;;;5054799;28;20496;-84
2022/10/27 12:33:29;;;;;;;4.13;3.73;;;19.20;99.90;;;;;;5055110;28;20471;-83
2022/10/27 12:36:04;;;;;;;4.80;4.30;;;19.30;99.90;;;;;;5056933;28;20462;-84
2022/10/27 12:38:41;;;;;;;6.20;4.50;;;19.30;99.90;;;;;;5025145;28;20479;-84
2022/10/27 12:41:13;;;;;;;8.30;4.73;;;19.30;99.90;;;;;;5045811;28;20468;-84
2022/10/27 12:43:51;;;;;;;7.10;3.83;;;19.30;99.90;;;;;;5033161;28;20468;-84
2022/10/27 12:46:31;;;;;;;9.13;5.10;;;19.30;99.90;;;;;;5032270;28;20542;-80
2022/10/27 12:49:37;;;;;;;4.87;3.10;;;19.40;99.90;;;;;;5011152;28;20469;-80
2022/10/27 12:52:12;;;;;;;4.20;3.80;;;19.40;99.90;;;;;;5028663;28;21004;-80
2022/10/27 12:55:17;;;;;;;4.63;3.83;;;19.40;99.90;;;;;;5031475;28;20654;-80
2022/10/27 12:57:51;;;;;;;6.40;4.00;;;19.40;99.90;;;;;;5032727;28;20470;-80
2022/10/27 13:00:21;;;;;;;4.53;3.83;;;19.40;99.90;;;;;;5036356;28;20464;-80
2022/10/27 13:03:24;;;;;;;;;;;;;;;;;;;;;
2022/10/27 13:06:10;;;;;;;4.07;3.17;;;19.50;99.90;;;;;;4965309;28;20490;-80
2022/10/27 13:09:05;;;;;;;3.57;3.27;;;19.50;99.90;;;;;;5041230;28;20564;-80
2022/10/27 13:12:05;;;;;;;5.80;3.27;;;19.50;99.90;;;;;;5036152;28;20914;-79
2022/10/27 13:15:01;;;;;;;4.03;3.63;;;19.50;99.90;;;;;;5031176;28;20468;-81
2022/10/27 13:17:39;;;;;;;5.80;4.97;;;19.50;99.90;;;;;;5013882;28;20514;-80